METAR AND TAF INFORMATION
METAR FOR GMFO
ADDS - METARS form results

(0939 UTC 14 October 2019)
Data provider http://aviationweather.gov/metar/data/
 
METAR text: GMFO 140930Z 31011KT 9999 SCT030 24/16 Q1019 NOSIG
Conditions at: GMFO (OUJDA/ANGADS , MA) observed 0930 UTC 14 October 2019
Temperature: 24.0°C (75°F)
Dewpoint: 16.0°C (61°F) [RH = 61%]
Pressure (altimeter): 30.09 inches Hg (1019.0 mb)
Winds: from the NW (310 degrees) at 13 MPH (11 knots; 5.7 m/s)
Visibility: 6 or more miles (10+ km)
Ceiling: at least 12,000 feet AGL
Clouds: scattered clouds at 3000 feet AGL
Weather: no significant weather observed at this time

METAR text: GMFO 140900Z 32013KT 9999 SCT030 23/16 Q1018 NOSIG
Conditions at: GMFO (OUJDA/ANGADS , MA) observed 0900 UTC 14 October 2019
Temperature: 23.0°C (73°F)
Dewpoint: 16.0°C (61°F) [RH = 65%]
Pressure (altimeter): 30.06 inches Hg (1018.0 mb)
Winds: from the NW (320 degrees) at 15 MPH (13 knots; 6.7 m/s)
Visibility: 6 or more miles (10+ km)
Ceiling: at least 12,000 feet AGL
Clouds: scattered clouds at 3000 feet AGL
Weather: no significant weather observed at this time

Forecast for: GMFO (OUJDA/ANGADS , MA)
Text: TAF GMFO 140500Z 1406/1512 20012KT 9999 FEW026 BKN100
Forecast period: 0600 to 1600 UTC 14 October 2019
Forecast type: FROM: standard forecast or significant change
Winds: from the SSW (200 degrees) at 14 MPH (12 knots; 6.2 m/s)
Visibility: 6 or more miles 10+ km)
Ceiling: 10000 feet AGL
Clouds: few clouds at 2600 feet AGL
broken clouds at 10000 feet AGL
Weather: no significant weather forecast for this period
Text: BECMG 1416/1420 34016KT SCT030
Forecast period: 1600 UTC 14 October 2019 to 1200 UTC 15 October 2019
Forecast type: BECOMING: Conditions expected to become as follows by 2000 UTC 14 October 2019
Winds: from the NNW (340 degrees) at 18 MPH (16 knots; 8.2 m/s)
Visibility: 6 or more miles 10+ km)
Ceiling: at least 12,000 feet AGL
Clouds: scattered clouds at 3000 feet AGL
Weather: no significant weather forecast for this period

 AIRPORT MAP

 RUNWAY INFORMATION
Runway 06 Runway length 9843 ft Runway width 148 ft
Runway elevation 1535 ft Runway displaced threshold 0 ft Runway heading 58
Runway 24 Runway length 9843 ft Runway width 148 ft
Runway elevation 1493 ft Runway displaced threshold 0 ft Runway heading 238

 AIRPORT FREQUENCIES
Type APP Name OUJDA APP Frequency 136.6 MHZ
Type ATIS Name ATIS Frequency 121.6 MHZ
Type TWR Name OUJDA TWR Frequency 118.2 MHZ

 AIRPORT NEAR NAVIGATION AIDS
Type NDB Name Oujda Frequency 371 KHZ
Type VOR-DME Name Oujda Frequency 117500 KHZ



Powered by Virtual Airlines Manager [v2.6.2]